To NAV CANADA Home Page Login to a new session Search on AWWS site Feedback and Comments Disclaimer Vers la page française équivalente Tips FAQ What's new on the site To the Forecasts and Observations / NOTAM section To "File a Flight Plan" website Publications and other links Update of the User's profile FIC Telephone Numbers My Weather Data Folder Route Weather Data Regional Weather Data Local Weather Data To the Forecasts and Observations / NOTAM section
Request Generated 08/28/2015 at 19:07:58 UTC . Weather information available at that time is displayed.

METAR/TAF

MEDICINE HAT/AB    (show WxCam)

METAR CYXH 281900Z 26010KT 2SM FU OVC080 29/05 A2988 RMK FU6AC2
SLP110 DENSITY ALT 4400FT=
METAR CYXH 281800Z 22009KT 2SM FU OVC080 26/06 A2990 RMK FU6AC2
SLP119 DENSITY ALT 4100FT=
METAR CYXH 281700Z CCA 22010KT 2SM FU OVC080 24/06 A2991 RMK FU6AC2
SLP122 DENSITY ALT 3900FT=
METAR CYXH 281700Z 22010KT 2SM 24/06 A2991 RMK FU6 SLP122 DENSITY ALT
3900FT=

TAF CYXH 281740Z 2818/2906 22010KT 2SM FU SCT080 TEMPO 2818/2822 3SM
FU
FM282200 22012KT 3SM FU SCT080 TEMPO 2822/2901 6SM FU
BECMG 2822/2824 VRB03KT
FM290100 22015G25KT 6SM FU SCT080 TEMPO 2901/2906 3SM FU HZ
RMK NXT FCST BY 290000Z=
Your time UTC time
Weather data provided by Environment Canada and NAV CANADA